Time;durP1;ratioP1;P1;durP2;ratioP2;P2;SDS_P1;SDS_P2;PMS_P1;PMS_P2;Temp;Humidity;BMP_temperature;BMP_pressure;BME280_temperature;BME280_humidity;BME280_pressure;Samples;Min_cycle;Max_cycle;Signal;HPM_P1;HPM_P2
2023/07/08 00:01:31;;;;;;;10.50;6.70;;;;;;;13.16;69.80;101088.60;102163;282;104228;-57
2023/07/08 00:04:07;;;;;;;9.40;6.10;;;;;;;13.15;69.79;101087.05;102167;283;113006;-58
2023/07/08 00:06:47;;;;;;;12.50;6.30;;;;;;;13.13;69.94;101081.45;102164;283;94157;-56
2023/07/08 00:09:34;;;;;;;12.00;6.60;;;;;;;13.09;70.16;101081.90;102200;283;97562;-59
2023/07/08 00:12:15;;;;;;;13.00;6.80;;;;;;;13.04;70.31;101086.48;102171;283;119334;-58
2023/07/08 00:14:55;;;;;;;9.80;6.60;;;;;;;12.97;70.35;101087.27;102195;283;106380;-56
2023/07/08 00:17:32;;;;;;;13.70;6.50;;;;;;;12.93;70.49;101090.34;102163;283;113185;-57
2023/07/08 00:20:15;;;;;;;7.60;5.60;;;;;;;12.89;70.64;101090.79;102017;283;97563;-57
2023/07/08 00:22:51;;;;;;;7.90;5.50;;;;;;;12.88;70.80;101093.15;102309;283;96746;-57
2023/07/08 00:25:32;;;;;;;9.70;6.30;;;;;;;12.82;70.95;101090.40;102153;283;119903;-57
2023/07/08 00:28:13;;;;;;;8.20;5.50;;;;;;;12.79;71.03;101090.95;102242;283;103690;-57
2023/07/08 00:30:49;;;;;;;10.10;6.40;;;;;;;12.75;71.19;101094.52;102175;283;114237;-56
2023/07/08 00:33:24;;;;;;;10.20;6.10;;;;;;;12.73;71.38;101098.06;102220;283;95245;-57
2023/07/08 00:36:02;;;;;;;10.50;6.50;;;;;;;12.69;71.52;101099.92;102150;283;97823;-58
2023/07/08 00:38:44;;;;;;;13.80;7.40;;;;;;;12.69;71.52;101101.05;102190;283;120564;-56
2023/07/08 00:41:30;;;;;;;14.10;7.20;;;;;;;12.63;71.74;101101.84;102161;283;105688;-54
2023/07/08 00:44:06;;;;;;;16.70;7.20;;;;;;;12.58;71.99;101097.63;102081;283;114623;-59
2023/07/08 00:47:00;;;;;;;11.40;6.60;;;;;;;12.55;72.24;101102.25;102089;282;93621;-58
2023/07/08 00:49:41;;;;;;;14.00;7.70;;;;;;;12.53;72.27;101103.30;102121;282;98693;-55
2023/07/08 00:52:28;;;;;;;10.90;7.80;;;;;;;12.51;72.53;101101.31;102148;283;120090;-56
2023/07/08 00:55:09;;;;;;;12.00;7.00;;;;;;;12.48;72.58;101100.80;102119;283;105727;-57
2023/07/08 00:57:51;;;;;;;12.20;6.50;;;;;;;12.45;72.75;101103.11;101880;283;115260;-58
2023/07/08 01:00:29;;;;;;;13.90;6.90;;;;;;;12.42;72.76;101104.05;102094;271;95031;-57
2023/07/08 01:03:10;;;;;;;10.80;6.50;;;;;;;12.39;72.99;101101.47;102045;283;98750;-57
2023/07/08 01:05:50;;;;;;;11.40;6.00;;;;;;;12.38;72.93;101099.27;102136;283;120424;-57
2023/07/08 01:08:28;;;;;;;10.10;6.30;;;;;;;12.38;73.27;101095.33;102183;271;105375;-55
2023/07/08 01:11:10;;;;;;;8.90;6.50;;;;;;;12.37;73.28;101098.67;102163;283;114970;-56
2023/07/08 01:13:50;;;;;;;12.90;7.00;;;;;;;12.35;73.22;101100.48;102160;283;94828;-59
2023/07/08 01:16:34;;;;;;;15.80;8.20;;;;;;;12.35;73.20;101101.91;102135;283;98278;-59
2023/07/08 01:19:18;;;;;;;9.90;6.70;;;;;;;12.32;73.34;101098.32;102161;283;118582;-57
2023/07/08 01:22:09;;;;;;;15.80;7.60;;;;;;;12.26;73.46;101099.63;102043;283;105576;-57
2023/07/08 01:24:46;;;;;;;10.90;6.80;;;;;;;12.26;73.67;101096.89;102057;283;114943;-58
2023/07/08 01:27:24;;;;;;;10.80;6.70;;;;;;;12.26;73.79;101098.16;102116;283;96619;-57
2023/07/08 01:30:05;;;;;;;12.80;7.10;;;;;;;12.28;73.85;101095.77;102088;283;97498;-58
2023/07/08 01:32:48;;;;;;;14.50;7.50;;;;;;;12.24;73.81;101096.96;102148;283;120825;-56
2023/07/08 01:35:31;;;;;;;13.20;7.90;;;;;;;12.18;73.84;101095.36;102079;283;105387;-56
2023/07/08 01:38:24;;;;;;;12.60;7.20;;;;;;;12.13;74.01;101090.73;102125;283;114429;-58
2023/07/08 01:41:02;;;;;;;11.30;7.80;;;;;;;12.08;74.29;101092.36;102084;283;93619;-58
2023/07/08 01:43:43;;;;;;;10.50;7.40;;;;;;;12.02;74.36;101092.45;102177;283;95353;-59
2023/07/08 01:46:27;;;;;;;12.50;7.30;;;;;;;11.95;74.61;101097.41;102109;283;121565;-58
2023/07/08 01:49:14;;;;;;;13.20;7.40;;;;;;;11.91;74.69;101098.76;102160;271;103776;-55
2023/07/08 01:51:59;;;;;;;13.80;7.80;;;;;;;11.90;74.78;101100.20;102103;283;114296;-56
2023/07/08 01:54:37;;;;;;;12.70;7.20;;;;;;;11.85;74.84;101098.24;102206;283;94753;-57
2023/07/08 01:57:19;;;;;;;10.20;7.10;;;;;;;11.83;75.05;101095.81;102203;271;96345;-57
2023/07/08 02:00:05;;;;;;;13.50;8.00;;;;;;;11.80;74.91;101091.94;102157;283;120797;-56
2023/07/08 02:02:45;;;;;;;15.00;8.00;;;;;;;11.79;75.04;101086.27;102181;283;102763;-57
2023/07/08 02:05:24;;;;;;;13.80;7.40;;;;;;;11.77;75.22;101091.45;102071;283;112862;-58
2023/07/08 02:08:03;;;;;;;11.30;7.40;;;;;;;11.75;75.40;101087.22;102139;283;95518;-57
2023/07/08 02:10:39;;;;;;;14.20;8.30;;;;;;;11.72;75.38;101082.27;102117;283;96346;-57
2023/07/08 02:13:18;;;;;;;12.40;8.10;;;;;;;11.75;75.58;101082.48;102136;283;119249;-56
2023/07/08 02:16:00;;;;;;;16.20;8.20;;;;;;;11.76;75.73;101076.77;102098;283;104365;-57
2023/07/08 02:18:39;;;;;;;14.70;8.60;;;;;;;11.77;75.99;101073.42;102138;282;114715;-57
2023/07/08 02:21:18;;;;;;;14.40;8.40;;;;;;;11.75;75.99;101076.38;102118;283;96179;-56
2023/07/08 02:23:55;;;;;;;13.70;8.60;;;;;;;11.73;75.99;101078.73;102145;283;98484;-56
2023/07/08 02:26:32;;;;;;;14.60;9.20;;;;;;;11.71;76.05;101080.20;102096;282;120527;-56
2023/07/08 02:29:11;;;;;;;17.90;8.50;;;;;;;11.72;76.09;101079.75;101982;283;104932;-56
2023/07/08 02:31:56;;;;;;;16.70;8.10;;;;;;;11.71;76.29;101078.65;102084;283;114836;-56
2023/07/08 02:34:33;;;;;;;15.10;9.00;;;;;;;11.71;76.36;101076.44;102147;283;96029;-57
2023/07/08 02:37:21;;;;;;;16.70;8.70;;;;;;;11.71;76.42;101073.53;102139;283;97939;-57
2023/07/08 02:40:06;;;;;;;18.40;9.00;;;;;;;11.73;76.43;101070.73;102167;283;121525;-57
2023/07/08 02:42:44;;;;;;;17.50;8.60;;;;;;;11.75;76.56;101073.31;102165;283;103011;-58
2023/07/08 02:45:19;;;;;;;16.60;8.30;;;;;;;11.76;76.71;101072.95;102107;283;113441;-58
2023/07/08 02:47:56;;;;;;;15.60;7.90;;;;;;;11.77;76.68;101071.27;102100;283;96982;-57
2023/07/08 02:50:39;;;;;;;14.70;8.40;;;;;;;11.79;76.75;101069.17;102088;283;97573;-60
2023/07/08 02:53:22;;;;;;;14.80;8.60;;;;;;;11.82;76.81;101073.52;102102;282;120250;-57
2023/07/08 02:56:02;;;;;;;13.30;8.30;;;;;;;11.84;76.88;101068.59;102093;283;106228;-57
2023/07/08 02:58:41;;;;;;;16.50;8.40;;;;;;;11.85;77.11;101072.21;101946;283;114680;-57
2023/07/08 03:01:23;;;;;;;15.20;8.20;;;;;;;11.87;77.09;101073.45;102126;283;96762;-57
2023/07/08 03:04:03;;;;;;;13.40;8.10;;;;;;;11.88;77.42;101080.24;102159;283;97802;-57
2023/07/08 03:06:45;;;;;;;18.10;9.30;;;;;;;11.91;77.25;101077.10;102069;282;120227;-57
2023/07/08 03:09:22;;;;;;;13.20;8.40;;;;;;;11.96;77.39;101079.30;102118;271;105946;-55
2023/07/08 03:12:03;;;;;;;13.40;7.60;;;;;;;12.02;77.46;101078.36;101927;283;114815;-55
2023/07/08 03:14:38;;;;;;;11.10;7.40;;;;;;;12.11;77.44;101082.08;102197;283;96128;-56
2023/07/08 03:17:19;;;;;;;15.30;7.50;;;;;;;12.17;77.68;101084.77;102140;283;97309;-57
2023/07/08 03:20:00;;;;;;;15.00;7.40;;;;;;;12.27;77.73;101084.80;102175;283;121130;-55
2023/07/08 03:22:45;;;;;;;12.80;7.20;;;;;;;12.39;77.73;101085.61;102179;283;105567;-56
2023/07/08 03:25:24;;;;;;;11.20;7.10;;;;;;;12.49;77.62;101086.36;102173;283;114075;-57
2023/07/08 03:28:06;;;;;;;11.30;6.70;;;;;;;12.58;77.56;101088.69;102193;283;96631;-58
2023/07/08 03:30:42;;;;;;;10.30;6.70;;;;;;;12.68;77.65;101086.64;102150;283;98375;-58
2023/07/08 03:33:18;;;;;;;15.90;7.20;;;;;;;12.92;77.76;101087.23;102222;283;120639;-55
2023/07/08 03:35:58;;;;;;;10.10;6.60;;;;;;;13.36;77.98;101086.23;102183;283;104555;-56
2023/07/08 03:38:58;;;;;;;10.50;6.10;;;;;;;14.46;77.19;101077.46;102206;283;115215;-57
2023/07/08 03:41:41;;;;;;;10.30;6.60;;;;;;;16.25;75.11;101076.96;102143;283;96431;-57
2023/07/08 03:44:21;;;;;;;9.30;6.70;;;;;;;17.85;72.69;101073.89;102137;283;98136;-57
2023/07/08 03:47:00;;;;;;;8.70;5.90;;;;;;;19.22;70.39;101068.67;102145;283;120336;-56
2023/07/08 03:49:37;;;;;;;7.10;5.40;;;;;;;20.32;68.02;101061.33;102184;283;104276;-58
2023/07/08 03:52:18;;;;;;;8.10;5.90;;;;;;;21.29;66.18;101064.97;102124;283;114075;-57
2023/07/08 03:55:01;;;;;;;8.40;5.40;;;;;;;22.20;64.47;101059.56;102158;283;95085;-56
2023/07/08 03:57:44;;;;;;;9.40;5.80;;;;;;;23.06;62.46;101060.02;102191;283;96977;-56
2023/07/08 04:00:19;;;;;;;9.90;6.00;;;;;;;23.84;60.66;101058.10;102141;283;120702;-56
2023/07/08 04:02:57;;;;;;;8.50;5.00;;;;;;;24.49;58.39;101059.21;102205;283;105905;-57
2023/07/08 04:05:37;;;;;;;8.00;5.50;;;;;;;25.21;56.46;101061.44;102161;283;113521;-56
2023/07/08 04:08:15;;;;;;;6.60;5.50;;;;;;;25.76;54.31;101061.73;102237;283;93537;-58
2023/07/08 04:10:55;;;;;;;6.40;5.50;;;;;;;26.25;53.01;101062.64;102198;283;98135;-58
2023/07/08 04:13:37;;;;;;;6.50;5.10;;;;;;;26.63;51.86;101059.11;102262;283;121229;-59
2023/07/08 04:16:18;;;;;;;;;;;;;;;27.05;50.50;101056.23;102244;283;105822;-58
2023/07/08 04:19:02;;;;;;;5.10;4.50;;;;;;;27.49;49.69;101057.55;102173;283;113922;-57
2023/07/08 04:21:42;;;;;;;;;;;;;;;27.92;48.49;101058.09;102177;282;94091;-58
2023/07/08 04:24:23;;;;;;;6.80;5.60;;;;;;;28.36;47.68;101048.93;102187;282;97449;-58
2023/07/08 04:27:04;;;;;;;8.70;6.10;;;;;;;28.57;46.51;101049.10;102192;283;120740;-56
2023/07/08 04:29:44;;;;;;;8.80;5.90;;;;;;;27.37;46.41;101053.54;102210;283;104712;-56
2023/07/08 04:32:28;;;;;;;10.30;7.10;;;;;;;26.07;47.16;101056.49;102197;283;114267;-56
2023/07/08 04:35:06;;;;;;;13.20;7.00;;;;;;;24.86;47.74;101056.36;102136;283;93424;-57
2023/07/08 04:37:41;;;;;;;12.00;7.10;;;;;;;23.84;48.61;101052.31;102240;282;98048;-58
2023/07/08 04:40:22;;;;;;;9.10;7.00;;;;;;;23.20;49.34;101052.66;102171;283;121039;-58
2023/07/08 04:43:00;;;;;;;9.20;6.80;;;;;;;22.86;50.13;101053.19;102244;283;105519;-58
2023/07/08 04:45:37;;;;;;;10.10;7.20;;;;;;;22.40;50.90;101053.02;102164;271;114600;-59
2023/07/08 04:48:24;;;;;;;11.50;7.40;;;;;;;22.10;51.52;101055.60;102154;283;94315;-56
2023/07/08 04:51:04;;;;;;;9.10;7.00;;;;;;;22.55;52.08;101049.14;102136;283;97222;-57
2023/07/08 04:53:41;;;;;;;13.80;7.70;;;;;;;23.61;51.44;101048.40;102166;283;121102;-56
2023/07/08 04:56:23;;;;;;;7.80;6.30;;;;;;;25.07;50.67;101048.30;102121;283;104409;-55
2023/07/08 04:59:04;;;;;;;9.30;6.00;;;;;;;25.93;49.43;101047.28;102143;283;115346;-59
2023/07/08 05:01:48;;;;;;;9.30;6.00;;;;;;;26.78;48.40;101040.73;102096;283;93706;-59
2023/07/08 05:04:29;;;;;;;5.80;5.20;;;;;;;28.46;47.37;101036.31;102173;282;96912;-59
2023/07/08 05:07:07;;;;;;;8.20;6.00;;;;;;;29.85;45.98;101032.90;102096;283;121116;-59
2023/07/08 05:09:45;;;;;;;6.20;4.90;;;;;;;30.91;44.55;101036.70;102069;283;105349;-58
2023/07/08 05:12:20;;;;;;;5.50;4.60;;;;;;;31.94;42.86;101034.61;102107;283;115177;-57
2023/07/08 05:15:00;;;;;;;5.70;4.70;;;;;;;32.85;40.91;101033.75;102116;283;93209;-57
2023/07/08 05:17:46;;;;;;;5.90;4.90;;;;;;;33.54;39.12;101035.79;101615;283;588266;-58
2023/07/08 05:20:22;;;;;;;7.20;4.70;;;;;;;34.08;37.71;101031.70;101974;283;120496;-58
2023/07/08 05:23:02;;;;;;;6.40;4.40;;;;;;;34.59;36.37;101030.26;102113;283;106351;-57
2023/07/08 05:25:41;;;;;;;5.10;4.10;;;;;;;35.07;35.53;101030.20;102059;283;114169;-58
2023/07/08 05:28:23;;;;;;;5.40;4.40;;;;;;;35.17;34.64;101026.53;102111;283;95431;-59
2023/07/08 05:31:02;;;;;;;4.80;4.20;;;;;;;35.26;33.80;101022.95;102098;283;97845;-59
2023/07/08 05:33:42;;;;;;;6.80;4.00;;;;;;;35.50;32.89;101022.98;102142;283;119767;-57
2023/07/08 05:36:18;;;;;;;5.30;4.20;;;;;;;35.88;32.42;101028.10;102148;283;106146;-57
2023/07/08 05:38:53;;;;;;;5.60;3.50;;;;;;;36.13;31.71;101028.52;102130;283;114818;-56
2023/07/08 05:41:27;;;;;;;6.80;3.90;;;;;;;36.54;30.88;101026.65;102129;283;93934;-56
2023/07/08 05:44:12;;;;;;;4.60;3.90;;;;;;;36.45;29.66;101028.65;102137;283;97990;-58
2023/07/08 05:46:52;;;;;;;7.50;3.60;;;;;;;36.62;29.60;101025.33;102124;283;120754;-59
2023/07/08 05:49:32;;;;;;;5.70;3.80;;;;;;;36.95;29.16;101021.57;102155;282;105537;-58
2023/07/08 05:52:11;;;;;;;5.80;3.30;;;;;;;37.39;28.31;101021.11;102151;283;114662;-59
2023/07/08 05:54:50;;;;;;;4.30;3.60;;;;;;;37.53;27.59;101020.04;102128;283;94958;-59
2023/07/08 05:57:40;;;;;;;5.20;3.50;;;;;;;37.87;27.25;101017.88;102174;283;97972;-58
2023/07/08 06:00:18;;;;;;;4.60;3.60;;;;;;;38.45;26.69;101025.05;101946;285;120334;-55
2023/07/08 06:03:01;;;;;;;4.60;3.40;;;;;;;38.65;25.96;101024.02;102135;283;105500;-57
2023/07/08 06:05:46;;;;;;;4.30;3.20;;;;;;;38.63;25.64;101019.45;102027;283;115458;-56
2023/07/08 06:08:25;;;;;;;4.70;2.90;;;;;;;38.77;25.57;101016.28;102102;283;93400;-57
2023/07/08 06:11:01;;;;;;;6.90;3.30;;;;;;;39.05;25.03;101019.41;102096;283;97185;-58
2023/07/08 06:13:42;;;;;;;3.90;2.80;;;;;;;39.32;24.53;101016.80;102148;283;120558;-59
2023/07/08 06:16:19;;;;;;;4.20;3.00;;;;;;;39.33;24.52;101024.66;102082;271;104918;-58
2023/07/08 06:19:10;;;;;;;5.00;3.20;;;;;;;39.29;24.08;101019.54;102134;283;114491;-58
2023/07/08 06:21:49;;;;;;;3.90;3.10;;;;;;;39.36;23.74;101018.91;102099;283;94921;-57
2023/07/08 06:24:31;;;;;;;4.50;2.90;;;;;;;39.31;24.06;101019.69;102193;283;97357;-60
2023/07/08 06:27:12;;;;;;;7.80;3.20;;;;;;;39.26;23.82;101016.70;102106;283;120337;-60
2023/07/08 06:29:47;;;;;;;3.90;3.50;;;;;;;39.80;23.36;101010.63;102166;283;105909;-60
2023/07/08 06:32:26;;;;;;;3.30;3.00;;;;;;;40.11;23.01;101012.91;102216;283;113210;-61
2023/07/08 06:35:04;;;;;;;3.70;3.20;;;;;;;40.34;22.76;101009.73;102349;283;93736;-66
2023/07/08 06:37:46;;;;;;;5.60;3.80;;;;;;;40.84;22.31;101006.50;102211;271;97970;-59
2023/07/08 06:40:27;;;;;;;4.50;4.20;;;;;;;41.00;21.80;101005.96;102160;283;120071;-57
2023/07/08 06:43:10;;;;;;;5.10;4.20;;;;;;;41.08;21.67;101000.02;102197;283;104779;-57
2023/07/08 06:45:50;;;;;;;5.90;3.90;;;;;;;41.16;21.39;101000.70;102094;283;112827;-56
2023/07/08 06:48:31;;;;;;;5.40;4.60;;;;;;;41.53;20.80;101005.50;102197;283;93184;-58
2023/07/08 06:51:06;;;;;;;4.00;3.30;;;;;;;41.19;20.75;101003.75;102158;283;98343;-58
2023/07/08 06:53:45;;;;;;;5.40;3.80;;;;;;;41.22;20.75;101000.33;101987;283;119997;-58
2023/07/08 06:56:22;;;;;;;2.90;2.70;;;;;;;41.49;20.47;101001.55;102097;283;104444;-59
2023/07/08 06:59:06;;;;;;;4.20;3.00;;;;;;;41.34;20.36;101001.25;101947;283;115098;-57
2023/07/08 07:01:44;;;;;;;4.20;2.80;;;;;;;41.63;19.80;100993.55;102151;283;93151;-58
2023/07/08 07:04:25;;;;;;;3.00;2.70;;;;;;;42.28;19.70;100994.41;102211;283;95839;-57
2023/07/08 07:07:09;;;;;;;4.30;2.60;;;;;;;42.32;19.36;100991.14;102129;283;120577;-57
2023/07/08 07:09:50;;;;;;;2.80;2.60;;;;;;;42.58;18.86;100991.41;101986;285;105769;-56
2023/07/08 07:12:26;;;;;;;4.80;2.40;;;;;;;42.63;18.77;100987.81;102151;283;114288;-57
2023/07/08 07:15:00;;;;;;;2.50;2.20;;;;;;;42.67;18.51;100988.67;102144;283;92596;-58
2023/07/08 07:17:41;;;;;;;2.50;2.30;;;;;;;42.93;18.08;100992.87;102258;283;97752;-57
2023/07/08 07:20:17;;;;;;;2.40;1.90;;;;;;;43.11;18.10;100986.52;102138;283;120679;-56
2023/07/08 07:22:58;;;;;;;3.10;2.40;;;;;;;43.01;17.98;100986.05;102170;283;106115;-57
2023/07/08 07:25:37;;;;;;;5.40;2.50;;;;;;;43.26;18.13;100980.87;102152;283;115052;-57
2023/07/08 07:28:16;;;;;;;2.40;2.20;;;;;;;43.31;17.91;100978.64;102187;283;94796;-58
2023/07/08 07:31:00;;;;;;;3.90;2.60;;;;;;;43.52;17.35;100982.41;102151;282;98029;-57
2023/07/08 07:33:37;;;;;;;3.20;2.20;;;;;;;43.69;17.25;100976.41;102183;283;121229;-56
2023/07/08 07:36:13;;;;;;;4.90;3.50;;;;;;;43.77;17.32;100977.77;102142;283;104935;-55
2023/07/08 07:38:50;;;;;;;2.40;2.10;;;;;;;43.97;16.89;100977.36;102105;283;113407;-56
2023/07/08 07:41:33;;;;;;;3.20;2.30;;;;;;;43.73;17.30;100978.05;102146;283;94233;-56
2023/07/08 07:44:14;;;;;;;3.10;2.00;;;;;;;43.00;16.91;100976.02;101979;283;98686;-56
2023/07/08 07:46:49;;;;;;;2.90;2.30;;;;;;;42.40;16.75;100972.30;102190;283;120965;-56
2023/07/08 07:49:26;;;;;;;3.70;2.60;;;;;;;42.59;17.16;100976.08;102221;283;105116;-56
2023/07/08 07:52:03;;;;;;;3.50;2.40;;;;;;;42.42;17.16;100975.40;102187;283;114308;-56
2023/07/08 07:54:53;;;;;;;2.70;2.30;;;;;;;42.00;17.26;100971.84;102231;283;94492;-56
2023/07/08 07:57:29;;;;;;;2.70;1.90;;;;;;;41.97;17.39;100972.37;102192;283;98192;-56
2023/07/08 08:00:06;;;;;;;2.30;2.10;;;;;;;41.88;17.11;100971.61;101976;283;119668;-57
2023/07/08 08:02:49;;;;;;;2.60;2.20;;;;;;;41.93;16.74;100970.71;102189;282;105604;-58
2023/07/08 08:05:33;;;;;;;2.20;1.80;;;;;;;42.22;17.16;100968.45;102188;283;113254;-58
2023/07/08 08:08:10;;;;;;;3.10;1.90;;;;;;;42.54;17.01;100971.48;102233;283;94383;-56
2023/07/08 08:10:51;;;;;;;2.30;2.00;;;;;;;42.95;16.74;100972.10;102162;283;98505;-57
2023/07/08 08:13:39;;;;;;;2.90;1.90;;;;;;;43.04;16.50;100969.65;102046;283;118194;-56
2023/07/08 08:16:22;;;;;;;2.10;1.70;;;;;;;43.10;16.57;100967.17;102188;282;102865;-57
2023/07/08 08:22:21;;;;;;;2.20;1.80;;;;;;;41.77;16.02;100957.42;102279;278;94822;-58
2023/07/08 08:24:56;;;;;;;2.60;2.30;;;;;;;41.34;16.23;100963.23;102505;278;96956;-55
2023/07/08 08:27:31;;;;;;;2.00;1.70;;;;;;;41.95;16.62;100962.19;102536;278;120245;-56
2023/07/08 08:30:09;;;;;;;2.90;1.90;;;;;;;42.49;16.49;100969.00;102522;278;106059;-57
2023/07/08 08:32:47;;;;;;;2.30;1.90;;;;;;;42.24;16.80;100971.89;102595;278;111832;-58
2023/07/08 08:35:26;;;;;;;2.90;2.10;;;;;;;42.10;16.33;100975.29;102528;278;94081;-56
2023/07/08 08:38:07;;;;;;;3.00;2.00;;;;;;;42.38;16.43;100976.58;102549;278;98355;-56
2023/07/08 08:40:44;;;;;;;3.10;2.20;;;;;;;42.16;16.37;100970.41;102435;279;122691;-55
2023/07/08 08:43:24;;;;;;;2.40;1.80;;;;;;;41.42;16.91;100971.63;102625;278;104741;-55
2023/07/08 08:46:08;;;;;;;2.90;2.00;;;;;;;40.70;16.69;100971.23;102597;278;113557;-57
2023/07/08 08:48:56;;;;;;;2.70;2.00;;;;;;;39.91;17.67;100971.23;102590;278;93871;-57
2023/07/08 08:51:34;;;;;;;2.70;1.70;;;;;;;40.10;17.87;100972.70;102523;278;96549;-57
2023/07/08 08:54:16;;;;;;;3.50;1.90;;;;;;;39.69;18.18;100973.69;102618;279;118738;-56
2023/07/08 08:57:05;;;;;;;2.60;1.70;;;;;;;40.00;18.30;100967.15;102595;278;105728;-59
2023/07/08 08:59:49;;;;;;;2.00;1.80;;;;;;;40.07;17.64;100965.85;102532;278;113596;-58
2023/07/08 09:02:42;;;;;;;2.80;1.70;;;;;;;39.97;17.61;100961.35;102518;279;93888;-56
2023/07/08 09:05:18;;;;;;;2.20;1.70;;;;;;;39.40;17.29;100967.20;102588;278;98209;-56
2023/07/08 09:08:14;;;;;;;2.60;1.90;;;;;;;38.51;17.77;100971.66;102516;279;120017;-57
2023/07/08 09:10:53;;;;;;;2.20;1.70;;;;;;;38.26;18.55;100969.11;102591;278;105420;-56
2023/07/08 09:13:33;;;;;;;2.60;2.10;;;;;;;37.40;18.76;100974.84;102529;278;114333;-58
2023/07/08 09:16:27;;;;;;;2.60;2.10;;;;;;;36.68;19.37;100970.98;102425;280;94156;-63
2023/07/08 09:19:19;;;;;;;5.20;2.00;;;;;;;36.05;19.67;100973.52;102542;278;97151;-59
2023/07/08 09:22:02;;;;;;;2.00;1.70;;;;;;;35.61;20.28;100976.45;102428;278;121057;-61
2023/07/08 09:24:51;;;;;;;4.90;1.80;;;;;;;35.48;20.02;100972.88;102605;279;104319;-60
2023/07/08 09:27:31;;;;;;;2.40;2.00;;;;;;;35.00;20.45;100966.75;102569;278;114268;-58
2023/07/08 09:30:10;;;;;;;3.30;1.90;;;;;;;34.61;21.01;100976.39;102640;278;93461;-59
2023/07/08 09:32:47;;;;;;;2.50;2.10;;;;;;;34.07;21.36;100978.95;102621;278;98069;-59
2023/07/08 09:35:28;;;;;;;2.70;1.80;;;;;;;32.95;21.62;100977.90;102469;278;119904;-59
2023/07/08 09:38:17;;;;;;;2.80;1.90;;;;;;;32.29;22.34;100975.71;102614;278;105919;-61
2023/07/08 09:40:56;;;;;;;2.50;1.60;;;;;;;32.48;23.01;100976.94;102507;280;114442;-63
2023/07/08 09:43:47;;;;;;;1.80;1.50;;;;;;;33.03;23.13;100971.02;102601;278;94613;-58
2023/07/08 09:46:26;;;;;;;1.70;1.50;;;;;;;33.23;22.97;100964.79;102555;278;97442;-55
2023/07/08 09:49:12;;;;;;;3.40;1.70;;;;;;;33.00;22.44;100958.84;102413;280;120032;-59
2023/07/08 09:51:49;;;;;;;2.40;1.90;;;;;;;32.47;22.51;100962.06;102529;279;106153;-57
2023/07/08 09:54:32;;;;;;;2.60;1.90;;;;;;;32.04;23.02;100966.40;102605;278;113920;-57
2023/07/08 09:57:23;;;;;;;3.00;1.90;;;;;;;31.44;23.08;100971.73;102497;278;92993;-55
2023/07/08 10:00:04;;;;;;;3.50;1.70;;;;;;;31.04;24.05;100966.31;102310;279;98546;-58
2023/07/08 10:02:54;;;;;;;2.60;1.90;;;;;;;31.28;24.54;100961.25;102495;278;121246;-58
2023/07/08 10:05:39;;;;;;;4.00;1.80;;;;;;;31.85;24.70;100959.48;102564;279;106201;-58
2023/07/08 10:08:20;;;;;;;3.60;2.00;;;;;;;32.17;24.31;100961.77;102537;279;113450;-59
2023/07/08 10:11:15;;;;;;;2.50;2.00;;;;;;;32.53;24.26;100960.79;102541;278;93805;-56
2023/07/08 10:13:57;;;;;;;2.60;2.00;;;;;;;32.53;23.32;100958.45;102578;278;96510;-58
2023/07/08 10:16:36;;;;;;;3.10;1.80;;;;;;;32.65;23.27;100947.66;102583;286;118852;-59
2023/07/08 10:19:23;;;;;;;3.40;2.20;;;;;;;32.42;23.57;100941.97;102561;278;105881;-55
2023/07/08 10:22:30;;;;;;;3.30;2.00;;;;;;;32.35;24.03;100946.70;102502;278;114805;-60
2023/07/08 10:25:21;;;;;;;2.40;2.10;;;;;;;32.51;24.13;100947.89;102570;279;94332;-62
2023/07/08 10:28:05;;;;;;;2.20;1.70;;;;;;;31.94;23.64;100951.11;102628;278;98000;-62
2023/07/08 10:30:59;;;;;;;3.10;2.00;;;;;;;31.78;24.07;100950.77;102368;278;120595;-62
2023/07/08 10:34:12;;;;;;;2.40;1.70;;;;;;;32.10;24.63;100946.56;102591;278;104288;-63
2023/07/08 10:37:00;;;;;;;2.20;1.90;;;;;;;31.84;25.01;100941.84;102511;278;114507;-59
2023/07/08 10:40:05;;;;;;;3.10;1.80;;;;;;;31.83;25.15;100939.47;102520;279;93554;-59
2023/07/08 10:43:05;;;;;;;3.20;1.90;;;;;;;32.13;25.55;100932.65;102510;278;96534;-58
2023/07/08 10:45:56;;;;;;;3.00;1.70;;;;;;;32.44;24.87;100927.73;102553;278;120123;-56
2023/07/08 10:48:58;;;;;;;2.60;1.90;;;;;;;32.80;24.90;100920.80;102498;278;105942;-55
2023/07/08 10:51:59;;;;;;;2.40;2.00;;;;;;;33.11;24.43;100924.70;102518;278;112938;-57
2023/07/08 10:54:56;;;;;;;2.70;2.20;;;;;;;32.93;23.95;100923.72;102586;278;94291;-56
2023/07/08 10:58:15;;;;;;;2.40;1.80;;;;;;;32.44;24.17;100926.67;102572;278;97624;-59
2023/07/08 11:01:04;;;;;;;2.30;1.80;;;;;;;32.09;24.79;100920.93;102516;278;120989;-56
2023/07/08 11:04:10;;;;;;;3.80;2.30;;;;;;;32.06;25.10;100919.44;102569;278;104036;-56
2023/07/08 11:06:51;;;;;;;;;;;;;;;32.28;24.87;100914.55;102503;278;113000;-58
2023/07/08 11:09:42;;;;;;;3.60;2.50;;;;;;;32.62;24.88;100915.01;102561;278;94698;-57
2023/07/08 11:12:30;;;;;;;2.20;1.80;;;;;;;32.90;23.97;100910.46;102536;279;97529;-56
2023/07/08 11:15:22;;;;;;;4.10;2.30;;;;;;;32.81;23.84;100909.45;102523;279;120226;-58
2023/07/08 11:18:05;;;;;;;3.80;2.10;;;;;;;33.01;24.33;100906.63;102522;278;105388;-58
2023/07/08 11:20:51;;;;;;;3.30;1.90;;;;;;;33.40;24.20;100904.03;102574;278;114711;-59
2023/07/08 11:23:39;;;;;;;2.90;1.90;;;;;;;33.22;24.39;100905.04;102527;279;93163;-58
2023/07/08 11:26:26;;;;;;;3.60;2.00;;;;;;;32.66;24.39;100903.06;102541;278;97909;-58
2023/07/08 11:29:13;;;;;;;3.30;2.30;;;;;;;32.22;25.09;100897.92;102542;278;120779;-59
2023/07/08 11:31:51;;;;;;;4.60;2.70;;;;;;;32.09;25.09;100895.77;102527;278;104214;-57
2023/07/08 11:34:28;;;;;;;2.90;1.90;;;;;;;32.20;25.38;100894.73;102509;278;114827;-56
2023/07/08 11:37:08;;;;;;;2.80;2.30;;;;;;;32.56;25.03;100889.31;102563;278;93247;-56
2023/07/08 11:39:47;;;;;;;3.10;2.40;;;;;;;32.73;24.36;100884.08;102577;278;96951;-57
2023/07/08 11:42:40;;;;;;;2.80;2.30;;;;;;;32.46;24.44;100890.22;102453;278;120258;-56
2023/07/08 11:45:38;;;;;;;2.80;2.20;;;;;;;31.93;24.55;100887.88;102609;278;104569;-56
2023/07/08 11:48:24;;;;;;;2.70;2.10;;;;;;;31.64;24.98;100890.05;102517;279;114609;-56
2023/07/08 11:51:05;;;;;;;3.30;1.80;;;;;;;31.42;25.12;100891.44;102568;278;93793;-57
2023/07/08 11:53:50;;;;;;;2.80;2.10;;;;;;;31.62;25.54;100891.59;102603;279;97006;-57
2023/07/08 11:56:27;;;;;;;2.90;2.10;;;;;;;31.75;25.38;100894.49;102527;278;120743;-57
2023/07/08 11:59:22;;;;;;;2.60;2.30;;;;;;;31.16;25.09;100895.59;102557;278;104840;-55
2023/07/08 12:02:14;;;;;;;2.40;2.10;;;;;;;30.88;25.26;100890.14;102523;279;114855;-56
2023/07/08 12:05:13;;;;;;;2.60;2.00;;;;;;;31.04;25.44;100891.41;102561;279;94646;-57
2023/07/08 12:08:00;;;;;;;2.70;2.10;;;;;;;31.39;25.47;100882.80;102533;278;98461;-56
2023/07/08 12:10:43;;;;;;;4.60;2.40;;;;;;;31.17;25.41;100890.54;102555;278;120352;-56
2023/07/08 12:13:24;;;;;;;4.00;2.50;;;;;;;30.71;25.49;100885.50;102581;278;105737;-56
2023/07/08 12:16:04;;;;;;;2.70;2.30;;;;;;;30.56;25.74;100880.35;102535;278;114359;-63
2023/07/08 12:18:45;;;;;;;3.30;2.20;;;;;;;30.63;26.04;100876.58;102541;278;93908;-60
2023/07/08 12:21:38;;;;;;;2.80;2.50;;;;;;;31.16;26.36;100877.42;102672;278;98031;-62
2023/07/08 12:24:16;;;;;;;2.50;2.20;;;;;;;31.63;25.97;100868.48;102662;279;121161;-60
2023/07/08 12:27:02;;;;;;;3.90;3.00;;;;;;;31.93;25.88;100865.20;102620;278;103933;-60
2023/07/08 12:29:46;;;;;;;3.40;2.20;;;;;;;32.18;25.59;100859.29;102684;278;114630;-60
2023/07/08 12:32:29;;;;;;;4.80;2.40;;;;;;;32.25;25.49;100860.05;102538;278;94066;-61